sensor_id;sensor_type;location;lat;lon;timestamp;P1;durP1;ratioP1;P2;durP2;ratioP2
51985;SDS011;38002;53.296;6.600;2023-04-21T00:04:25;22.65;;;12.23;;
51985;SDS011;38002;53.296;6.600;2023-04-21T00:09:26;19.95;;;12.63;;
51985;SDS011;38002;53.296;6.600;2023-04-21T00:14:27;23.52;;;14.07;;
51985;SDS011;38002;53.296;6.600;2023-04-21T00:19:27;21.05;;;13.60;;
51985;SDS011;38002;53.296;6.600;2023-04-21T00:24:29;21.27;;;12.30;;
51985;SDS011;38002;53.296;6.600;2023-04-21T00:29:30;21.25;;;14.02;;
51985;SDS011;38002;53.296;6.600;2023-04-21T00:34:30;22.55;;;12.88;;
51985;SDS011;38002;53.296;6.600;2023-04-21T00:39:31;23.13;;;13.57;;
51985;SDS011;38002;53.296;6.600;2023-04-21T00:44:31;18.17;;;12.65;;
51985;SDS011;38002;53.296;6.600;2023-04-21T00:49:32;24.02;;;13.40;;
51985;SDS011;38002;53.296;6.600;2023-04-21T00:54:34;20.83;;;11.98;;
51985;SDS011;38002;53.296;6.600;2023-04-21T00:59:34;17.00;;;11.95;;
51985;SDS011;38002;53.296;6.600;2023-04-21T01:04:35;20.60;;;12.80;;
51985;SDS011;38002;53.296;6.600;2023-04-21T01:09:38;24.17;;;14.88;;
51985;SDS011;38002;53.296;6.600;2023-04-21T01:14:39;22.17;;;13.57;;
51985;SDS011;38002;53.296;6.600;2023-04-21T01:19:40;21.00;;;13.20;;
51985;SDS011;38002;53.296;6.600;2023-04-21T01:24:43;27.80;;;14.10;;
51985;SDS011;38002;53.296;6.600;2023-04-21T01:29:45;19.17;;;13.02;;
51985;SDS011;38002;53.296;6.600;2023-04-21T01:34:47;19.50;;;13.32;;
51985;SDS011;38002;53.296;6.600;2023-04-21T01:39:50;20.20;;;13.60;;
51985;SDS011;38002;53.296;6.600;2023-04-21T01:44:53;23.83;;;14.30;;
51985;SDS011;38002;53.296;6.600;2023-04-21T01:49:54;22.33;;;13.57;;
51985;SDS011;38002;53.296;6.600;2023-04-21T01:54:54;18.25;;;12.88;;
51985;SDS011;38002;53.296;6.600;2023-04-21T01:59:55;24.50;;;14.50;;
51985;SDS011;38002;53.296;6.600;2023-04-21T02:04:55;24.23;;;13.23;;
51985;SDS011;38002;53.296;6.600;2023-04-21T02:09:56;21.30;;;14.00;;
51985;SDS011;38002;53.296;6.600;2023-04-21T02:14:56;19.10;;;13.05;;
51985;SDS011;38002;53.296;6.600;2023-04-21T02:19:56;20.55;;;15.27;;
51985;SDS011;38002;53.296;6.600;2023-04-21T02:24:57;25.45;;;14.65;;
51985;SDS011;38002;53.296;6.600;2023-04-21T02:29:57;27.98;;;15.50;;
51985;SDS011;38002;53.296;6.600;2023-04-21T02:34:58;28.60;;;17.08;;
51985;SDS011;38002;53.296;6.600;2023-04-21T02:39:58;26.77;;;15.05;;
51985;SDS011;38002;53.296;6.600;2023-04-21T02:44:59;33.13;;;15.95;;
51985;SDS011;38002;53.296;6.600;2023-04-21T02:49:59;24.67;;;15.80;;
51985;SDS011;38002;53.296;6.600;2023-04-21T02:55:00;21.33;;;14.73;;
51985;SDS011;38002;53.296;6.600;2023-04-21T03:00:00;23.17;;;14.65;;
51985;SDS011;38002;53.296;6.600;2023-04-21T03:05:01;24.23;;;14.65;;
51985;SDS011;38002;53.296;6.600;2023-04-21T03:10:03;21.45;;;15.15;;
51985;SDS011;38002;53.296;6.600;2023-04-21T03:15:05;24.65;;;14.65;;
51985;SDS011;38002;53.296;6.600;2023-04-21T03:20:06;24.25;;;14.18;;
51985;SDS011;38002;53.296;6.600;2023-04-21T03:25:07;22.85;;;12.48;;
51985;SDS011;38002;53.296;6.600;2023-04-21T03:30:08;21.92;;;12.82;;
51985;SDS011;38002;53.296;6.600;2023-04-21T03:35:09;19.83;;;13.23;;
51985;SDS011;38002;53.296;6.600;2023-04-21T03:40:09;17.02;;;11.93;;
51985;SDS011;38002;53.296;6.600;2023-04-21T03:45:10;20.92;;;12.07;;
51985;SDS011;38002;53.296;6.600;2023-04-21T03:50:11;16.40;;;11.30;;
51985;SDS011;38002;53.296;6.600;2023-04-21T03:55:11;18.33;;;11.75;;
51985;SDS011;38002;53.296;6.600;2023-04-21T04:00:12;18.83;;;11.77;;
51985;SDS011;38002;53.296;6.600;2023-04-21T04:05:13;18.60;;;11.00;;
51985;SDS011;38002;53.296;6.600;2023-04-21T04:10:13;24.85;;;12.98;;
51985;SDS011;38002;53.296;6.600;2023-04-21T04:15:14;23.40;;;12.15;;
51985;SDS011;38002;53.296;6.600;2023-04-21T04:20:14;19.00;;;12.30;;
51985;SDS011;38002;53.296;6.600;2023-04-21T04:25:15;21.15;;;11.38;;
51985;SDS011;38002;53.296;6.600;2023-04-21T04:30:16;20.25;;;11.45;;
51985;SDS011;38002;53.296;6.600;2023-04-21T04:35:16;19.92;;;11.82;;
51985;SDS011;38002;53.296;6.600;2023-04-21T04:40:17;25.48;;;13.00;;
51985;SDS011;38002;53.296;6.600;2023-04-21T04:45:18;14.48;;;11.00;;
51985;SDS011;38002;53.296;6.600;2023-04-21T04:50:20;19.70;;;11.93;;
51985;SDS011;38002;53.296;6.600;2023-04-21T04:55:20;18.02;;;10.68;;
51985;SDS011;38002;53.296;6.600;2023-04-21T05:00:21;16.52;;;10.15;;
51985;SDS011;38002;53.296;6.600;2023-04-21T05:05:22;19.90;;;11.10;;
51985;SDS011;38002;53.296;6.600;2023-04-21T05:10:23;19.52;;;12.93;;
51985;SDS011;38002;53.296;6.600;2023-04-21T05:15:24;22.15;;;11.63;;
51985;SDS011;38002;53.296;6.600;2023-04-21T05:20:24;18.25;;;11.50;;
51985;SDS011;38002;53.296;6.600;2023-04-21T05:25:25;20.33;;;10.75;;
51985;SDS011;38002;53.296;6.600;2023-04-21T05:30:25;18.60;;;11.07;;
51985;SDS011;38002;53.296;6.600;2023-04-21T05:35:26;17.60;;;11.07;;
51985;SDS011;38002;53.296;6.600;2023-04-21T05:40:29;16.15;;;12.25;;
51985;SDS011;38002;53.296;6.600;2023-04-21T05:45:30;19.20;;;10.73;;
51985;SDS011;38002;53.296;6.600;2023-04-21T05:50:30;21.52;;;12.43;;
51985;SDS011;38002;53.296;6.600;2023-04-21T05:55:34;18.23;;;11.25;;
51985;SDS011;38002;53.296;6.600;2023-04-21T06:00:35;18.38;;;11.50;;
51985;SDS011;38002;53.296;6.600;2023-04-21T06:05:35;27.58;;;11.38;;
51985;SDS011;38002;53.296;6.600;2023-04-21T06:10:36;16.85;;;11.02;;
51985;SDS011;38002;53.296;6.600;2023-04-21T06:15:36;19.90;;;11.15;;
51985;SDS011;38002;53.296;6.600;2023-04-21T06:20:37;20.15;;;10.93;;
51985;SDS011;38002;53.296;6.600;2023-04-21T06:25:37;15.85;;;9.63;;
51985;SDS011;38002;53.296;6.600;2023-04-21T06:30:38;22.50;;;12.48;;
51985;SDS011;38002;53.296;6.600;2023-04-21T06:35:38;21.15;;;10.90;;
51985;SDS011;38002;53.296;6.600;2023-04-21T06:40:39;19.02;;;10.63;;
51985;SDS011;38002;53.296;6.600;2023-04-21T06:45:39;16.90;;;11.13;;
51985;SDS011;38002;53.296;6.600;2023-04-21T06:50:40;20.50;;;11.27;;
51985;SDS011;38002;53.296;6.600;2023-04-21T06:55:43;22.88;;;10.25;;
51985;SDS011;38002;53.296;6.600;2023-04-21T07:00:43;15.30;;;10.30;;
51985;SDS011;38002;53.296;6.600;2023-04-21T07:05:44;14.80;;;9.32;;
51985;SDS011;38002;53.296;6.600;2023-04-21T07:10:45;14.70;;;9.38;;
51985;SDS011;38002;53.296;6.600;2023-04-21T07:15:45;21.42;;;10.38;;
51985;SDS011;38002;53.296;6.600;2023-04-21T07:20:45;19.20;;;9.90;;
51985;SDS011;38002;53.296;6.600;2023-04-21T07:25:46;17.92;;;10.27;;
51985;SDS011;38002;53.296;6.600;2023-04-21T07:30:47;14.55;;;9.48;;
51985;SDS011;38002;53.296;6.600;2023-04-21T07:35:47;25.83;;;9.85;;
51985;SDS011;38002;53.296;6.600;2023-04-21T07:40:48;17.80;;;8.82;;
51985;SDS011;38002;53.296;6.600;2023-04-21T07:45:48;21.00;;;10.15;;
51985;SDS011;38002;53.296;6.600;2023-04-21T07:50:51;10.73;;;8.02;;
51985;SDS011;38002;53.296;6.600;2023-04-21T07:55:52;12.13;;;8.53;;
51985;SDS011;38002;53.296;6.600;2023-04-21T08:00:53;13.43;;;8.53;;
51985;SDS011;38002;53.296;6.600;2023-04-21T08:05:54;10.55;;;8.48;;
51985;SDS011;38002;53.296;6.600;2023-04-21T08:10:54;11.77;;;7.82;;
51985;SDS011;38002;53.296;6.600;2023-04-21T08:15:55;18.02;;;8.05;;
51985;SDS011;38002;53.296;6.600;2023-04-21T08:20:55;12.00;;;8.65;;
51985;SDS011;38002;53.296;6.600;2023-04-21T08:25:57;12.83;;;7.93;;
51985;SDS011;38002;53.296;6.600;2023-04-21T08:30:57;16.40;;;8.32;;
51985;SDS011;38002;53.296;6.600;2023-04-21T08:40:59;13.00;;;7.70;;
51985;SDS011;38002;53.296;6.600;2023-04-21T08:46:05;12.75;;;8.23;;
51985;SDS011;38002;53.296;6.600;2023-04-21T08:51:07;18.48;;;8.25;;
51985;SDS011;38002;53.296;6.600;2023-04-21T08:56:08;12.55;;;8.02;;
51985;SDS011;38002;53.296;6.600;2023-04-21T09:01:09;13.23;;;8.05;;
51985;SDS011;38002;53.296;6.600;2023-04-21T09:06:11;13.25;;;8.05;;
51985;SDS011;38002;53.296;6.600;2023-04-21T09:11:12;10.17;;;7.23;;
51985;SDS011;38002;53.296;6.600;2023-04-21T09:16:14;12.40;;;7.63;;
51985;SDS011;38002;53.296;6.600;2023-04-21T09:21:17;9.00;;;7.10;;
51985;SDS011;38002;53.296;6.600;2023-04-21T09:31:23;12.88;;;7.65;;
51985;SDS011;38002;53.296;6.600;2023-04-21T09:36:24;16.10;;;7.20;;
51985;SDS011;38002;53.296;6.600;2023-04-21T09:41:27;12.77;;;7.07;;
51985;SDS011;38002;53.296;6.600;2023-04-21T09:46:28;12.23;;;7.30;;
51985;SDS011;38002;53.296;6.600;2023-04-21T09:51:31;14.98;;;6.30;;
51985;SDS011;38002;53.296;6.600;2023-04-21T09:56:32;17.20;;;6.37;;
51985;SDS011;38002;53.296;6.600;2023-04-21T10:01:36;11.90;;;6.03;;
51985;SDS011;38002;53.296;6.600;2023-04-21T10:06:38;13.23;;;7.43;;
51985;SDS011;38002;53.296;6.600;2023-04-21T10:11:39;12.33;;;5.97;;
51985;SDS011;38002;53.296;6.600;2023-04-21T10:16:41;14.63;;;7.05;;
51985;SDS011;38002;53.296;6.600;2023-04-21T10:21:41;14.00;;;6.07;;
51985;SDS011;38002;53.296;6.600;2023-04-21T10:26:42;12.53;;;6.80;;
51985;SDS011;38002;53.296;6.600;2023-04-21T10:47:15;14.30;;;6.20;;
51985;SDS011;38002;53.296;6.600;2023-04-21T10:52:44;8.90;;;5.05;;
51985;SDS011;38002;53.296;6.600;2023-04-21T10:57:51;12.60;;;6.20;;
51985;SDS011;38002;53.296;6.600;2023-04-21T11:02:59;10.03;;;5.57;;
51985;SDS011;38002;53.296;6.600;2023-04-21T11:13:07;10.63;;;6.43;;
51985;SDS011;38002;53.296;6.600;2023-04-21T11:18:07;11.10;;;5.40;;
51985;SDS011;38002;53.296;6.600;2023-04-21T11:23:08;13.77;;;5.90;;
51985;SDS011;38002;53.296;6.600;2023-04-21T11:28:09;11.97;;;5.63;;
51985;SDS011;38002;53.296;6.600;2023-04-21T11:33:09;8.77;;;6.30;;
51985;SDS011;38002;53.296;6.600;2023-04-21T11:38:10;7.20;;;5.53;;
51985;SDS011;38002;53.296;6.600;2023-04-21T11:43:13;8.07;;;5.20;;
51985;SDS011;38002;53.296;6.600;2023-04-21T11:48:14;8.17;;;4.73;;
51985;SDS011;38002;53.296;6.600;2023-04-21T11:53:16;14.20;;;4.88;;
51985;SDS011;38002;53.296;6.600;2023-04-21T11:58:19;8.15;;;4.88;;
51985;SDS011;38002;53.296;6.600;2023-04-21T12:03:20;10.43;;;5.10;;
51985;SDS011;38002;53.296;6.600;2023-04-21T12:08:20;12.83;;;5.20;;
51985;SDS011;38002;53.296;6.600;2023-04-21T12:13:21;9.77;;;5.13;;
51985;SDS011;38002;53.296;6.600;2023-04-21T12:18:25;10.52;;;5.03;;
51985;SDS011;38002;53.296;6.600;2023-04-21T12:23:26;8.55;;;4.85;;
51985;SDS011;38002;53.296;6.600;2023-04-21T12:28:28;6.37;;;4.50;;
51985;SDS011;38002;53.296;6.600;2023-04-21T12:38:29;7.80;;;4.63;;
51985;SDS011;38002;53.296;6.600;2023-04-21T12:43:29;11.07;;;4.87;;
51985;SDS011;38002;53.296;6.600;2023-04-21T12:48:30;13.40;;;4.97;;
51985;SDS011;38002;53.296;6.600;2023-04-21T12:53:30;9.87;;;4.77;;
51985;SDS011;38002;53.296;6.600;2023-04-21T12:58:31;8.47;;;4.80;;
51985;SDS011;38002;53.296;6.600;2023-04-21T13:03:32;6.68;;;4.15;;
51985;SDS011;38002;53.296;6.600;2023-04-21T13:08:33;6.57;;;4.40;;
51985;SDS011;38002;53.296;6.600;2023-04-21T13:13:33;6.00;;;4.20;;
51985;SDS011;38002;53.296;6.600;2023-04-21T13:18:34;9.87;;;4.10;;
51985;SDS011;38002;53.296;6.600;2023-04-21T13:23:36;4.55;;;3.65;;
51985;SDS011;38002;53.296;6.600;2023-04-21T13:28:36;7.00;;;3.83;;
51985;SDS011;38002;53.296;6.600;2023-04-21T13:33:37;5.63;;;3.97;;
51985;SDS011;38002;53.296;6.600;2023-04-21T13:38:37;21.03;;;4.97;;
51985;SDS011;38002;53.296;6.600;2023-04-21T13:43:39;5.78;;;3.78;;
51985;SDS011;38002;53.296;6.600;2023-04-21T13:48:40;6.97;;;3.70;;
51985;SDS011;38002;53.296;6.600;2023-04-21T13:53:40;4.80;;;4.13;;
51985;SDS011;38002;53.296;6.600;2023-04-21T13:58:41;8.60;;;5.90;;
51985;SDS011;38002;53.296;6.600;2023-04-21T14:03:42;9.20;;;4.88;;
51985;SDS011;38002;53.296;6.600;2023-04-21T14:08:42;7.80;;;4.17;;
51985;SDS011;38002;53.296;6.600;2023-04-21T14:13:43;9.63;;;4.20;;
51985;SDS011;38002;53.296;6.600;2023-04-21T14:18:43;6.73;;;4.00;;
51985;SDS011;38002;53.296;6.600;2023-04-21T14:23:45;9.23;;;4.43;;
51985;SDS011;38002;53.296;6.600;2023-04-21T14:28:46;11.20;;;4.77;;
51985;SDS011;38002;53.296;6.600;2023-04-21T14:33:46;8.97;;;4.40;;
51985;SDS011;38002;53.296;6.600;2023-04-21T14:38:47;5.90;;;3.97;;
51985;SDS011;38002;53.296;6.600;2023-04-21T14:43:48;10.93;;;3.63;;
51985;SDS011;38002;53.296;6.600;2023-04-21T14:48:52;4.95;;;3.88;;
51985;SDS011;38002;53.296;6.600;2023-04-21T14:53:53;4.17;;;3.63;;
51985;SDS011;38002;53.296;6.600;2023-04-21T14:58:54;7.00;;;3.10;;
51985;SDS011;38002;53.296;6.600;2023-04-21T15:03:54;9.30;;;4.20;;
51985;SDS011;38002;53.296;6.600;2023-04-21T15:08:56;5.47;;;3.97;;
51985;SDS011;38002;53.296;6.600;2023-04-21T15:13:56;5.03;;;3.67;;
51985;SDS011;38002;53.296;6.600;2023-04-21T15:18:57;4.83;;;3.83;;
51985;SDS011;38002;53.296;6.600;2023-04-21T15:23:57;5.23;;;3.60;;
51985;SDS011;38002;53.296;6.600;2023-04-21T15:28:58;5.07;;;3.73;;
51985;SDS011;38002;53.296;6.600;2023-04-21T15:33:58;6.23;;;3.10;;
51985;SDS011;38002;53.296;6.600;2023-04-21T15:38:59;6.77;;;4.10;;
51985;SDS011;38002;53.296;6.600;2023-04-21T15:43:59;4.27;;;3.17;;
51985;SDS011;38002;53.296;6.600;2023-04-21T15:49:00;6.53;;;3.47;;
51985;SDS011;38002;53.296;6.600;2023-04-21T15:54:00;4.53;;;3.67;;
51985;SDS011;38002;53.296;6.600;2023-04-21T15:59:00;6.13;;;4.23;;
51985;SDS011;38002;53.296;6.600;2023-04-21T16:04:02;3.90;;;3.42;;
51985;SDS011;38002;53.296;6.600;2023-04-21T16:14:04;4.93;;;4.00;;
51985;SDS011;38002;53.296;6.600;2023-04-21T16:19:05;7.63;;;4.30;;
51985;SDS011;38002;53.296;6.600;2023-04-21T16:24:05;6.00;;;3.63;;
51985;SDS011;38002;53.296;6.600;2023-04-21T16:29:07;8.45;;;4.75;;
51985;SDS011;38002;53.296;6.600;2023-04-21T16:34:08;4.80;;;4.40;;
51985;SDS011;38002;53.296;6.600;2023-04-21T16:39:08;8.83;;;4.17;;
51985;SDS011;38002;53.296;6.600;2023-04-21T16:44:09;7.27;;;3.70;;
51985;SDS011;38002;53.296;6.600;2023-04-21T16:49:09;5.73;;;4.20;;
51985;SDS011;38002;53.296;6.600;2023-04-21T16:54:11;4.78;;;4.38;;
51985;SDS011;38002;53.296;6.600;2023-04-21T16:59:12;5.65;;;4.30;;
51985;SDS011;38002;53.296;6.600;2023-04-21T17:04:13;7.30;;;4.53;;
51985;SDS011;38002;53.296;6.600;2023-04-21T17:09:15;8.32;;;4.10;;
51985;SDS011;38002;53.296;6.600;2023-04-21T17:14:15;6.43;;;4.90;;
51985;SDS011;38002;53.296;6.600;2023-04-21T17:19:16;7.20;;;4.80;;
51985;SDS011;38002;53.296;6.600;2023-04-21T17:24:16;8.93;;;4.80;;
51985;SDS011;38002;53.296;6.600;2023-04-21T17:29:17;5.93;;;5.33;;
51985;SDS011;38002;53.296;6.600;2023-04-21T17:34:17;5.13;;;4.73;;
51985;SDS011;38002;53.296;6.600;2023-04-21T17:39:18;5.23;;;4.77;;
51985;SDS011;38002;53.296;6.600;2023-04-21T17:44:18;5.90;;;5.33;;
51985;SDS011;38002;53.296;6.600;2023-04-21T17:49:18;10.27;;;5.83;;
51985;SDS011;38002;53.296;6.600;2023-04-21T17:54:19;6.70;;;4.77;;
51985;SDS011;38002;53.296;6.600;2023-04-21T17:59:19;9.67;;;4.73;;
51985;SDS011;38002;53.296;6.600;2023-04-21T18:04:20;5.70;;;5.13;;
51985;SDS011;38002;53.296;6.600;2023-04-21T18:09:23;6.50;;;5.70;;
51985;SDS011;38002;53.296;6.600;2023-04-21T18:14:24;7.45;;;5.70;;
51985;SDS011;38002;53.296;6.600;2023-04-21T18:19:24;7.90;;;4.73;;
51985;SDS011;38002;53.296;6.600;2023-04-21T18:24:25;5.33;;;4.83;;
51985;SDS011;38002;53.296;6.600;2023-04-21T18:29:26;8.43;;;5.53;;
51985;SDS011;38002;53.296;6.600;2023-04-21T18:34:26;6.73;;;5.17;;
51985;SDS011;38002;53.296;6.600;2023-04-21T18:39:27;6.13;;;5.13;;
51985;SDS011;38002;53.296;6.600;2023-04-21T18:44:27;6.80;;;5.07;;
51985;SDS011;38002;53.296;6.600;2023-04-21T18:49:29;5.95;;;5.40;;
51985;SDS011;38002;53.296;6.600;2023-04-21T18:54:29;6.23;;;4.77;;
51985;SDS011;38002;53.296;6.600;2023-04-21T18:59:29;12.50;;;5.03;;
51985;SDS011;38002;53.296;6.600;2023-04-21T19:04:30;6.37;;;5.43;;
51985;SDS011;38002;53.296;6.600;2023-04-21T19:09:30;5.93;;;5.33;;
51985;SDS011;38002;53.296;6.600;2023-04-21T19:14:31;8.23;;;5.47;;
51985;SDS011;38002;53.296;6.600;2023-04-21T19:19:31;9.33;;;5.67;;
51985;SDS011;38002;53.296;6.600;2023-04-21T19:24:32;7.17;;;6.43;;
51985;SDS011;38002;53.296;6.600;2023-04-21T19:29:33;8.57;;;6.27;;
51985;SDS011;38002;53.296;6.600;2023-04-21T19:34:35;14.00;;;9.00;;
51985;SDS011;38002;53.296;6.600;2023-04-21T19:39:36;8.67;;;6.50;;
51985;SDS011;38002;53.296;6.600;2023-04-21T19:44:36;8.93;;;6.80;;
51985;SDS011;38002;53.296;6.600;2023-04-21T19:49:38;9.93;;;7.00;;
51985;SDS011;38002;53.296;6.600;2023-04-21T19:54:38;10.00;;;7.67;;
51985;SDS011;38002;53.296;6.600;2023-04-21T19:59:38;8.17;;;7.30;;
51985;SDS011;38002;53.296;6.600;2023-04-21T20:04:39;8.87;;;7.97;;
51985;SDS011;38002;53.296;6.600;2023-04-21T20:14:41;13.45;;;8.30;;
51985;SDS011;38002;53.296;6.600;2023-04-21T20:19:42;13.83;;;9.67;;
51985;SDS011;38002;53.296;6.600;2023-04-21T20:24:42;12.60;;;7.53;;
51985;SDS011;38002;53.296;6.600;2023-04-21T20:29:43;9.50;;;8.60;;
51985;SDS011;38002;53.296;6.600;2023-04-21T20:34:43;10.40;;;9.13;;
51985;SDS011;38002;53.296;6.600;2023-04-21T20:39:44;12.83;;;8.50;;
51985;SDS011;38002;53.296;6.600;2023-04-21T20:44:45;10.07;;;8.73;;
51985;SDS011;38002;53.296;6.600;2023-04-21T20:49:46;12.53;;;9.00;;
51985;SDS011;38002;53.296;6.600;2023-04-21T20:54:46;9.73;;;8.53;;
51985;SDS011;38002;53.296;6.600;2023-04-21T20:59:49;11.15;;;8.65;;
51985;SDS011;38002;53.296;6.600;2023-04-21T21:04:49;14.70;;;8.40;;
51985;SDS011;38002;53.296;6.600;2023-04-21T21:09:50;10.87;;;6.90;;
51985;SDS011;38002;53.296;6.600;2023-04-21T21:14:50;11.83;;;7.63;;
51985;SDS011;38002;53.296;6.600;2023-04-21T21:19:51;9.10;;;8.20;;
51985;SDS011;38002;53.296;6.600;2023-04-21T21:24:51;8.20;;;7.40;;
51985;SDS011;38002;53.296;6.600;2023-04-21T21:29:52;8.93;;;8.13;;
51985;SDS011;38002;53.296;6.600;2023-04-21T21:34:52;9.47;;;7.73;;
51985;SDS011;38002;53.296;6.600;2023-04-21T21:39:53;11.70;;;7.83;;
51985;SDS011;38002;53.296;6.600;2023-04-21T21:44:54;9.07;;;8.10;;
51985;SDS011;38002;53.296;6.600;2023-04-21T21:49:54;7.77;;;6.73;;
51985;SDS011;38002;53.296;6.600;2023-04-21T21:54:57;9.50;;;7.80;;
51985;SDS011;38002;53.296;6.600;2023-04-21T21:59:58;10.47;;;8.80;;
51985;SDS011;38002;53.296;6.600;2023-04-21T22:05:01;11.95;;;8.10;;
51985;SDS011;38002;53.296;6.600;2023-04-21T22:10:04;11.52;;;8.73;;
51985;SDS011;38002;53.296;6.600;2023-04-21T22:15:05;11.47;;;9.00;;
51985;SDS011;38002;53.296;6.600;2023-04-21T22:20:06;9.88;;;7.70;;
51985;SDS011;38002;53.296;6.600;2023-04-21T22:25:08;12.87;;;8.47;;
51985;SDS011;38002;53.296;6.600;2023-04-21T22:30:10;13.48;;;7.20;;
51985;SDS011;38002;53.296;6.600;2023-04-21T22:35:10;10.47;;;8.43;;
51985;SDS011;38002;53.296;6.600;2023-04-21T22:40:11;13.23;;;9.13;;
51985;SDS011;38002;53.296;6.600;2023-04-21T22:45:11;12.27;;;9.80;;
51985;SDS011;38002;53.296;6.600;2023-04-21T22:50:12;11.37;;;8.73;;
51985;SDS011;38002;53.296;6.600;2023-04-21T22:55:13;14.60;;;9.68;;
51985;SDS011;38002;53.296;6.600;2023-04-21T23:00:14;10.03;;;7.50;;
51985;SDS011;38002;53.296;6.600;2023-04-21T23:05:15;15.57;;;9.60;;
51985;SDS011;38002;53.296;6.600;2023-04-21T23:10:15;11.23;;;9.30;;
51985;SDS011;38002;53.296;6.600;2023-04-21T23:15:16;10.23;;;9.23;;
51985;SDS011;38002;53.296;6.600;2023-04-21T23:20:16;12.70;;;8.27;;
51985;SDS011;38002;53.296;6.600;2023-04-21T23:25:17;10.37;;;9.40;;
51985;SDS011;38002;53.296;6.600;2023-04-21T23:30:17;16.77;;;10.10;;
51985;SDS011;38002;53.296;6.600;2023-04-21T23:35:18;9.77;;;8.73;;
51985;SDS011;38002;53.296;6.600;2023-04-21T23:40:18;12.93;;;9.35;;
51985;SDS011;38002;53.296;6.600;2023-04-21T23:45:19;12.57;;;8.50;;
51985;SDS011;38002;53.296;6.600;2023-04-21T23:50:19;10.18;;;9.10;;
51985;SDS011;38002;53.296;6.600;2023-04-21T23:55:20;10.88;;;8.80;;
